sensor_id;sensor_type;location;lat;lon;timestamp;temperature;humidity
26990;DHT22;14537;47.788;11.858;2023-07-20T00:01:03;17.20;99.90
26990;DHT22;14537;47.788;11.858;2023-07-20T00:03:29;17.30;99.90
26990;DHT22;14537;47.788;11.858;2023-07-20T00:05:55;17.40;99.90
26990;DHT22;14537;47.788;11.858;2023-07-20T00:08:20;17.40;99.90
26990;DHT22;14537;47.788;11.858;2023-07-20T00:10:46;17.40;99.90
26990;DHT22;14537;47.788;11.858;2023-07-20T00:13:12;17.40;99.90
26990;DHT22;14537;47.788;11.858;2023-07-20T00:15:37;17.50;99.90
26990;DHT22;14537;47.788;11.858;2023-07-20T00:18:06;17.50;99.90
26990;DHT22;14537;47.788;11.858;2023-07-20T00:20:32;17.60;99.90
26990;DHT22;14537;47.788;11.858;2023-07-20T00:22:58;17.60;99.90
26990;DHT22;14537;47.788;11.858;2023-07-20T00:25:27;17.60;99.90
26990;DHT22;14537;47.788;11.858;2023-07-20T00:27:52;17.70;99.90
26990;DHT22;14537;47.788;11.858;2023-07-20T00:30:18;17.60;99.90
26990;DHT22;14537;47.788;11.858;2023-07-20T00:32:44;17.50;99.90
26990;DHT22;14537;47.788;11.858;2023-07-20T00:35:10;17.50;99.90
26990;DHT22;14537;47.788;11.858;2023-07-20T00:37:37;17.30;99.90
26990;DHT22;14537;47.788;11.858;2023-07-20T00:40:03;17.20;99.90
26990;DHT22;14537;47.788;11.858;2023-07-20T00:42:33;17.20;99.90
26990;DHT22;14537;47.788;11.858;2023-07-20T00:44:58;17.10;99.90
26990;DHT22;14537;47.788;11.858;2023-07-20T00:47:24;17.10;99.90
26990;DHT22;14537;47.788;11.858;2023-07-20T00:49:51;17.00;99.90
26990;DHT22;14537;47.788;11.858;2023-07-20T00:52:19;17.00;99.90
26990;DHT22;14537;47.788;11.858;2023-07-20T00:54:45;17.10;99.90
26990;DHT22;14537;47.788;11.858;2023-07-20T00:57:14;17.00;99.90
26990;DHT22;14537;47.788;11.858;2023-07-20T00:59:40;17.00;99.90
26990;DHT22;14537;47.788;11.858;2023-07-20T01:02:06;16.90;99.90
26990;DHT22;14537;47.788;11.858;2023-07-20T01:04:32;16.90;99.90
26990;DHT22;14537;47.788;11.858;2023-07-20T01:07:12;16.90;99.90
26990;DHT22;14537;47.788;11.858;2023-07-20T01:12:17;16.80;99.90
26990;DHT22;14537;47.788;11.858;2023-07-20T01:14:44;16.80;99.90
26990;DHT22;14537;47.788;11.858;2023-07-20T01:17:10;17.00;99.90
26990;DHT22;14537;47.788;11.858;2023-07-20T01:19:36;17.00;99.90
26990;DHT22;14537;47.788;11.858;2023-07-20T01:22:23;17.00;99.90
26990;DHT22;14537;47.788;11.858;2023-07-20T01:33:20;16.90;99.90
26990;DHT22;14537;47.788;11.858;2023-07-20T01:35:57;17.00;99.90
26990;DHT22;14537;47.788;11.858;2023-07-20T01:38:24;17.00;99.90
26990;DHT22;14537;47.788;11.858;2023-07-20T01:40:50;17.00;99.90
26990;DHT22;14537;47.788;11.858;2023-07-20T01:43:17;17.00;99.90
26990;DHT22;14537;47.788;11.858;2023-07-20T01:45:43;16.90;99.90
26990;DHT22;14537;47.788;11.858;2023-07-20T01:48:09;16.90;99.90
26990;DHT22;14537;47.788;11.858;2023-07-20T01:50:35;16.80;99.90
26990;DHT22;14537;47.788;11.858;2023-07-20T01:53:01;16.90;99.90
26990;DHT22;14537;47.788;11.858;2023-07-20T01:55:26;16.80;99.90
26990;DHT22;14537;47.788;11.858;2023-07-20T01:57:53;16.80;99.90
26990;DHT22;14537;47.788;11.858;2023-07-20T02:00:18;16.90;99.90
26990;DHT22;14537;47.788;11.858;2023-07-20T02:02:46;16.80;99.90
26990;DHT22;14537;47.788;11.858;2023-07-20T02:05:12;16.80;99.90
26990;DHT22;14537;47.788;11.858;2023-07-20T02:07:38;16.80;99.90
26990;DHT22;14537;47.788;11.858;2023-07-20T02:10:04;16.80;99.90
26990;DHT22;14537;47.788;11.858;2023-07-20T02:12:30;16.80;99.90
26990;DHT22;14537;47.788;11.858;2023-07-20T02:14:55;16.80;99.90
26990;DHT22;14537;47.788;11.858;2023-07-20T02:17:21;16.80;99.90
26990;DHT22;14537;47.788;11.858;2023-07-20T02:19:46;16.80;99.90
26990;DHT22;14537;47.788;11.858;2023-07-20T02:22:15;16.80;99.90
26990;DHT22;14537;47.788;11.858;2023-07-20T02:24:42;16.80;99.90
26990;DHT22;14537;47.788;11.858;2023-07-20T02:27:07;16.80;99.90
26990;DHT22;14537;47.788;11.858;2023-07-20T02:29:33;16.80;99.90
26990;DHT22;14537;47.788;11.858;2023-07-20T02:31:59;16.70;99.90
26990;DHT22;14537;47.788;11.858;2023-07-20T02:34:25;16.70;99.90
26990;DHT22;14537;47.788;11.858;2023-07-20T02:36:50;16.70;99.90
26990;DHT22;14537;47.788;11.858;2023-07-20T02:39:16;16.60;99.90
26990;DHT22;14537;47.788;11.858;2023-07-20T02:41:41;16.60;99.90
26990;DHT22;14537;47.788;11.858;2023-07-20T02:44:07;16.50;99.90
26990;DHT22;14537;47.788;11.858;2023-07-20T02:46:33;16.50;99.90
26990;DHT22;14537;47.788;11.858;2023-07-20T02:49:00;16.60;99.90
26990;DHT22;14537;47.788;11.858;2023-07-20T02:51:26;16.60;99.90
26990;DHT22;14537;47.788;11.858;2023-07-20T02:53:52;16.60;99.90
26990;DHT22;14537;47.788;11.858;2023-07-20T02:56:17;16.60;99.90
26990;DHT22;14537;47.788;11.858;2023-07-20T02:58:43;16.50;99.90
26990;DHT22;14537;47.788;11.858;2023-07-20T03:01:09;16.50;99.90
26990;DHT22;14537;47.788;11.858;2023-07-20T03:03:38;16.50;99.90
26990;DHT22;14537;47.788;11.858;2023-07-20T03:06:04;16.50;99.90
26990;DHT22;14537;47.788;11.858;2023-07-20T03:08:30;16.60;99.90
26990;DHT22;14537;47.788;11.858;2023-07-20T03:10:55;16.60;99.90
26990;DHT22;14537;47.788;11.858;2023-07-20T03:13:21;16.60;99.90
26990;DHT22;14537;47.788;11.858;2023-07-20T03:15:46;16.60;99.90
26990;DHT22;14537;47.788;11.858;2023-07-20T03:18:12;16.60;99.90
26990;DHT22;14537;47.788;11.858;2023-07-20T03:20:38;16.60;99.90
26990;DHT22;14537;47.788;11.858;2023-07-20T03:23:04;16.60;99.90
26990;DHT22;14537;47.788;11.858;2023-07-20T03:25:30;16.50;99.90
26990;DHT22;14537;47.788;11.858;2023-07-20T03:27:55;16.50;99.90
26990;DHT22;14537;47.788;11.858;2023-07-20T03:30:21;16.50;99.90
26990;DHT22;14537;47.788;11.858;2023-07-20T03:32:47;16.50;99.90
26990;DHT22;14537;47.788;11.858;2023-07-20T03:35:12;16.50;99.90
26990;DHT22;14537;47.788;11.858;2023-07-20T03:37:38;16.50;99.90
26990;DHT22;14537;47.788;11.858;2023-07-20T03:40:04;16.50;99.90
26990;DHT22;14537;47.788;11.858;2023-07-20T03:42:30;16.50;99.90
26990;DHT22;14537;47.788;11.858;2023-07-20T03:44:56;16.60;99.90
26990;DHT22;14537;47.788;11.858;2023-07-20T03:47:22;16.60;99.90
26990;DHT22;14537;47.788;11.858;2023-07-20T03:49:47;16.60;99.90
26990;DHT22;14537;47.788;11.858;2023-07-20T03:52:13;16.60;99.90
26990;DHT22;14537;47.788;11.858;2023-07-20T03:54:38;16.50;99.90
26990;DHT22;14537;47.788;11.858;2023-07-20T03:57:04;16.50;99.90
26990;DHT22;14537;47.788;11.858;2023-07-20T03:59:30;16.50;99.90
26990;DHT22;14537;47.788;11.858;2023-07-20T04:01:55;16.40;99.90
26990;DHT22;14537;47.788;11.858;2023-07-20T04:04:21;16.40;99.90
26990;DHT22;14537;47.788;11.858;2023-07-20T04:06:47;16.50;99.90
26990;DHT22;14537;47.788;11.858;2023-07-20T04:09:13;16.50;99.90
26990;DHT22;14537;47.788;11.858;2023-07-20T04:11:38;16.50;99.90
26990;DHT22;14537;47.788;11.858;2023-07-20T04:14:04;16.50;99.90
26990;DHT22;14537;47.788;11.858;2023-07-20T04:16:30;16.50;99.90
26990;DHT22;14537;47.788;11.858;2023-07-20T04:18:56;16.50;99.90
26990;DHT22;14537;47.788;11.858;2023-07-20T04:21:22;16.50;99.90
26990;DHT22;14537;47.788;11.858;2023-07-20T04:23:48;16.60;99.90
26990;DHT22;14537;47.788;11.858;2023-07-20T04:26:13;16.60;99.90
26990;DHT22;14537;47.788;11.858;2023-07-20T04:28:40;16.60;99.90
26990;DHT22;14537;47.788;11.858;2023-07-20T04:31:15;16.60;99.90
26990;DHT22;14537;47.788;11.858;2023-07-20T04:33:41;16.60;99.90
26990;DHT22;14537;47.788;11.858;2023-07-20T04:36:07;16.60;99.90
26990;DHT22;14537;47.788;11.858;2023-07-20T04:38:33;16.50;99.90
26990;DHT22;14537;47.788;11.858;2023-07-20T04:40:59;16.40;99.90
26990;DHT22;14537;47.788;11.858;2023-07-20T04:43:25;16.30;99.90
26990;DHT22;14537;47.788;11.858;2023-07-20T04:45:51;16.30;99.90
26990;DHT22;14537;47.788;11.858;2023-07-20T04:48:17;16.10;99.90
26990;DHT22;14537;47.788;11.858;2023-07-20T04:50:44;16.00;99.90
26990;DHT22;14537;47.788;11.858;2023-07-20T04:53:11;16.00;99.90
26990;DHT22;14537;47.788;11.858;2023-07-20T04:55:37;16.00;99.90
26990;DHT22;14537;47.788;11.858;2023-07-20T04:58:03;16.10;99.90
26990;DHT22;14537;47.788;11.858;2023-07-20T05:00:30;16.10;99.90
26990;DHT22;14537;47.788;11.858;2023-07-20T05:02:55;16.20;99.90
26990;DHT22;14537;47.788;11.858;2023-07-20T05:05:21;16.20;99.90
26990;DHT22;14537;47.788;11.858;2023-07-20T05:07:47;16.20;99.90
26990;DHT22;14537;47.788;11.858;2023-07-20T05:10:13;16.20;99.90
26990;DHT22;14537;47.788;11.858;2023-07-20T05:12:38;16.10;99.90
26990;DHT22;14537;47.788;11.858;2023-07-20T05:15:04;16.00;99.90
26990;DHT22;14537;47.788;11.858;2023-07-20T05:17:30;16.00;99.90
26990;DHT22;14537;47.788;11.858;2023-07-20T05:19:56;16.00;99.90
26990;DHT22;14537;47.788;11.858;2023-07-20T05:22:21;16.00;99.90
26990;DHT22;14537;47.788;11.858;2023-07-20T05:24:47;15.90;99.90
26990;DHT22;14537;47.788;11.858;2023-07-20T05:27:12;15.90;99.90
26990;DHT22;14537;47.788;11.858;2023-07-20T05:29:44;15.90;99.90
26990;DHT22;14537;47.788;11.858;2023-07-20T05:32:09;15.80;99.90
26990;DHT22;14537;47.788;11.858;2023-07-20T05:34:35;15.60;99.90
26990;DHT22;14537;47.788;11.858;2023-07-20T05:37:00;15.60;99.90
26990;DHT22;14537;47.788;11.858;2023-07-20T05:39:26;15.50;99.90
26990;DHT22;14537;47.788;11.858;2023-07-20T05:41:51;15.50;99.90
26990;DHT22;14537;47.788;11.858;2023-07-20T05:44:17;15.50;99.90
26990;DHT22;14537;47.788;11.858;2023-07-20T05:46:43;15.60;99.90
26990;DHT22;14537;47.788;11.858;2023-07-20T05:49:08;15.50;99.90
26990;DHT22;14537;47.788;11.858;2023-07-20T05:51:35;15.60;99.90
26990;DHT22;14537;47.788;11.858;2023-07-20T05:54:00;15.60;99.90
26990;DHT22;14537;47.788;11.858;2023-07-20T05:56:26;15.70;99.90
26990;DHT22;14537;47.788;11.858;2023-07-20T05:58:51;15.70;99.90
26990;DHT22;14537;47.788;11.858;2023-07-20T06:01:17;15.80;99.90
26990;DHT22;14537;47.788;11.858;2023-07-20T06:03:44;15.70;99.90
26990;DHT22;14537;47.788;11.858;2023-07-20T06:06:10;15.70;99.90
26990;DHT22;14537;47.788;11.858;2023-07-20T06:08:37;15.70;99.90
26990;DHT22;14537;47.788;11.858;2023-07-20T06:11:03;15.70;99.90
26990;DHT22;14537;47.788;11.858;2023-07-20T06:13:29;15.70;99.90
26990;DHT22;14537;47.788;11.858;2023-07-20T06:15:54;15.70;99.90
26990;DHT22;14537;47.788;11.858;2023-07-20T06:18:24;15.70;99.90
26990;DHT22;14537;47.788;11.858;2023-07-20T06:20:52;15.70;99.90
26990;DHT22;14537;47.788;11.858;2023-07-20T06:23:19;15.70;99.90
26990;DHT22;14537;47.788;11.858;2023-07-20T06:25:45;15.60;99.90
26990;DHT22;14537;47.788;11.858;2023-07-20T06:28:11;15.70;99.90
26990;DHT22;14537;47.788;11.858;2023-07-20T06:30:36;15.70;99.90
26990;DHT22;14537;47.788;11.858;2023-07-20T06:33:02;15.70;99.90
26990;DHT22;14537;47.788;11.858;2023-07-20T06:35:28;15.70;99.90
26990;DHT22;14537;47.788;11.858;2023-07-20T06:37:53;15.70;99.90
26990;DHT22;14537;47.788;11.858;2023-07-20T06:40:19;15.70;99.90
26990;DHT22;14537;47.788;11.858;2023-07-20T06:42:45;15.70;99.90
26990;DHT22;14537;47.788;11.858;2023-07-20T06:45:10;15.80;99.90
26990;DHT22;14537;47.788;11.858;2023-07-20T06:47:39;15.80;99.90
26990;DHT22;14537;47.788;11.858;2023-07-20T06:50:06;15.80;99.90
26990;DHT22;14537;47.788;11.858;2023-07-20T06:52:32;15.80;99.90
26990;DHT22;14537;47.788;11.858;2023-07-20T06:54:58;15.80;99.90
26990;DHT22;14537;47.788;11.858;2023-07-20T06:57:24;15.80;99.90
26990;DHT22;14537;47.788;11.858;2023-07-20T06:59:50;15.80;99.90
26990;DHT22;14537;47.788;11.858;2023-07-20T07:02:15;15.90;99.90
26990;DHT22;14537;47.788;11.858;2023-07-20T07:04:42;16.00;99.90
26990;DHT22;14537;47.788;11.858;2023-07-20T07:07:07;16.10;99.90
26990;DHT22;14537;47.788;11.858;2023-07-20T07:09:34;16.20;99.90
26990;DHT22;14537;47.788;11.858;2023-07-20T07:11:59;16.30;99.90
26990;DHT22;14537;47.788;11.858;2023-07-20T07:14:25;16.40;99.90
26990;DHT22;14537;47.788;11.858;2023-07-20T07:16:51;16.50;99.90
26990;DHT22;14537;47.788;11.858;2023-07-20T07:19:16;16.50;99.90
26990;DHT22;14537;47.788;11.858;2023-07-20T07:21:42;16.60;99.90
26990;DHT22;14537;47.788;11.858;2023-07-20T07:24:08;16.60;99.90
26990;DHT22;14537;47.788;11.858;2023-07-20T07:26:36;16.70;99.90
26990;DHT22;14537;47.788;11.858;2023-07-20T07:29:02;16.60;99.90
26990;DHT22;14537;47.788;11.858;2023-07-20T07:31:29;16.60;99.90
26990;DHT22;14537;47.788;11.858;2023-07-20T07:33:56;16.60;99.90
26990;DHT22;14537;47.788;11.858;2023-07-20T07:36:21;16.70;99.90
26990;DHT22;14537;47.788;11.858;2023-07-20T07:38:47;16.70;99.90
26990;DHT22;14537;47.788;11.858;2023-07-20T07:41:13;16.70;99.90
26990;DHT22;14537;47.788;11.858;2023-07-20T07:43:39;16.80;99.90
26990;DHT22;14537;47.788;11.858;2023-07-20T07:46:05;16.70;99.90
26990;DHT22;14537;47.788;11.858;2023-07-20T07:48:30;16.80;99.90
26990;DHT22;14537;47.788;11.858;2023-07-20T07:50:56;16.90;99.90
26990;DHT22;14537;47.788;11.858;2023-07-20T07:53:22;17.00;99.90
26990;DHT22;14537;47.788;11.858;2023-07-20T07:55:48;17.00;99.90
26990;DHT22;14537;47.788;11.858;2023-07-20T07:58:13;17.10;99.90
26990;DHT22;14537;47.788;11.858;2023-07-20T08:00:39;17.40;99.90
26990;DHT22;14537;47.788;11.858;2023-07-20T08:03:06;17.50;99.90
26990;DHT22;14537;47.788;11.858;2023-07-20T08:05:33;17.70;99.90
26990;DHT22;14537;47.788;11.858;2023-07-20T08:07:58;17.70;99.90
26990;DHT22;14537;47.788;11.858;2023-07-20T08:10:24;17.80;99.90
26990;DHT22;14537;47.788;11.858;2023-07-20T08:12:49;17.90;99.90
26990;DHT22;14537;47.788;11.858;2023-07-20T08:15:17;17.90;99.90
26990;DHT22;14537;47.788;11.858;2023-07-20T08:17:43;18.00;99.90
26990;DHT22;14537;47.788;11.858;2023-07-20T08:20:10;18.10;99.90
26990;DHT22;14537;47.788;11.858;2023-07-20T08:22:38;18.20;99.90
26990;DHT22;14537;47.788;11.858;2023-07-20T08:25:05;18.20;99.90
26990;DHT22;14537;47.788;11.858;2023-07-20T08:27:31;18.40;99.90
26990;DHT22;14537;47.788;11.858;2023-07-20T08:29:56;18.50;99.90
26990;DHT22;14537;47.788;11.858;2023-07-20T08:32:22;18.60;99.90
26990;DHT22;14537;47.788;11.858;2023-07-20T08:34:48;18.60;99.90
26990;DHT22;14537;47.788;11.858;2023-07-20T08:37:13;18.60;99.90
26990;DHT22;14537;47.788;11.858;2023-07-20T08:39:39;18.60;99.90
26990;DHT22;14537;47.788;11.858;2023-07-20T08:42:05;18.50;99.90
26990;DHT22;14537;47.788;11.858;2023-07-20T08:44:35;18.40;99.90
26990;DHT22;14537;47.788;11.858;2023-07-20T08:47:02;18.50;99.90
26990;DHT22;14537;47.788;11.858;2023-07-20T08:49:31;18.50;99.90
26990;DHT22;14537;47.788;11.858;2023-07-20T08:51:58;18.70;99.90
26990;DHT22;14537;47.788;11.858;2023-07-20T08:54:29;18.80;99.90
26990;DHT22;14537;47.788;11.858;2023-07-20T08:56:56;19.00;99.90
26990;DHT22;14537;47.788;11.858;2023-07-20T08:59:23;19.10;99.90
26990;DHT22;14537;47.788;11.858;2023-07-20T09:01:50;19.10;99.90
26990;DHT22;14537;47.788;11.858;2023-07-20T09:04:18;19.00;99.90
26990;DHT22;14537;47.788;11.858;2023-07-20T09:06:43;19.00;99.90
26990;DHT22;14537;47.788;11.858;2023-07-20T09:09:09;18.80;99.90
26990;DHT22;14537;47.788;11.858;2023-07-20T09:11:35;18.70;99.90
26990;DHT22;14537;47.788;11.858;2023-07-20T09:14:07;18.80;99.90
26990;DHT22;14537;47.788;11.858;2023-07-20T09:19:17;18.50;99.90
26990;DHT22;14537;47.788;11.858;2023-07-20T09:21:50;18.60;99.90
26990;DHT22;14537;47.788;11.858;2023-07-20T09:24:19;18.60;99.90
26990;DHT22;14537;47.788;11.858;2023-07-20T09:26:47;18.60;99.90
26990;DHT22;14537;47.788;11.858;2023-07-20T09:29:19;18.60;99.90
26990;DHT22;14537;47.788;11.858;2023-07-20T09:32:01;18.60;99.90
26990;DHT22;14537;47.788;11.858;2023-07-20T09:34:29;18.60;99.90
26990;DHT22;14537;47.788;11.858;2023-07-20T09:36:55;18.50;99.90
26990;DHT22;14537;47.788;11.858;2023-07-20T09:39:21;18.50;99.90
26990;DHT22;14537;47.788;11.858;2023-07-20T09:41:47;18.60;99.90
26990;DHT22;14537;47.788;11.858;2023-07-20T09:44:14;18.70;99.90
26990;DHT22;14537;47.788;11.858;2023-07-20T09:46:48;18.80;99.90
26990;DHT22;14537;47.788;11.858;2023-07-20T09:49:14;18.90;99.90
26990;DHT22;14537;47.788;11.858;2023-07-20T09:51:40;19.00;99.90
26990;DHT22;14537;47.788;11.858;2023-07-20T09:54:07;19.00;99.90
26990;DHT22;14537;47.788;11.858;2023-07-20T09:56:35;19.00;99.90
26990;DHT22;14537;47.788;11.858;2023-07-20T09:59:00;19.00;99.90
26990;DHT22;14537;47.788;11.858;2023-07-20T10:01:26;19.10;99.90
26990;DHT22;14537;47.788;11.858;2023-07-20T10:03:54;19.10;99.90
26990;DHT22;14537;47.788;11.858;2023-07-20T10:06:24;19.00;99.90
26990;DHT22;14537;47.788;11.858;2023-07-20T10:08:57;19.10;99.90
26990;DHT22;14537;47.788;11.858;2023-07-20T10:11:27;19.00;99.90
26990;DHT22;14537;47.788;11.858;2023-07-20T10:13:55;19.20;99.90
26990;DHT22;14537;47.788;11.858;2023-07-20T10:16:39;19.20;99.90
26990;DHT22;14537;47.788;11.858;2023-07-20T10:21:45;19.20;99.90
26990;DHT22;14537;47.788;11.858;2023-07-20T10:24:13;19.20;99.90
26990;DHT22;14537;47.788;11.858;2023-07-20T10:26:40;19.20;99.90
26990;DHT22;14537;47.788;11.858;2023-07-20T10:29:05;19.20;99.90
26990;DHT22;14537;47.788;11.858;2023-07-20T10:31:32;19.20;99.90
26990;DHT22;14537;47.788;11.858;2023-07-20T10:33:59;19.20;99.90
26990;DHT22;14537;47.788;11.858;2023-07-20T10:36:27;19.30;99.90
26990;DHT22;14537;47.788;11.858;2023-07-20T10:38:57;19.40;99.90
26990;DHT22;14537;47.788;11.858;2023-07-20T10:41:29;19.40;99.90
26990;DHT22;14537;47.788;11.858;2023-07-20T10:44:07;19.50;99.90
26990;DHT22;14537;47.788;11.858;2023-07-20T10:49:08;19.70;99.90
26990;DHT22;14537;47.788;11.858;2023-07-20T10:54:09;20.00;99.90
26990;DHT22;14537;47.788;11.858;2023-07-20T10:56:35;20.20;99.90
26990;DHT22;14537;47.788;11.858;2023-07-20T10:59:01;20.20;99.90
26990;DHT22;14537;47.788;11.858;2023-07-20T11:01:43;20.40;99.90
26990;DHT22;14537;47.788;11.858;2023-07-20T11:04:09;20.60;99.90
26990;DHT22;14537;47.788;11.858;2023-07-20T11:06:35;20.60;99.90
26990;DHT22;14537;47.788;11.858;2023-07-20T11:11:30;20.70;99.90
26990;DHT22;14537;47.788;11.858;2023-07-20T11:14:04;20.70;99.90
26990;DHT22;14537;47.788;11.858;2023-07-20T11:16:44;21.00;99.90
26990;DHT22;14537;47.788;11.858;2023-07-20T11:19:20;21.10;99.90
26990;DHT22;14537;47.788;11.858;2023-07-20T11:21:47;21.10;99.90
26990;DHT22;14537;47.788;11.858;2023-07-20T11:24:14;21.20;99.90
26990;DHT22;14537;47.788;11.858;2023-07-20T11:26:44;21.20;99.90
26990;DHT22;14537;47.788;11.858;2023-07-20T11:29:11;21.20;99.90
26990;DHT22;14537;47.788;11.858;2023-07-20T11:31:38;21.10;99.90
26990;DHT22;14537;47.788;11.858;2023-07-20T11:34:04;21.10;99.90
26990;DHT22;14537;47.788;11.858;2023-07-20T11:36:29;21.40;99.90
26990;DHT22;14537;47.788;11.858;2023-07-20T11:38:55;21.50;99.90
26990;DHT22;14537;47.788;11.858;2023-07-20T11:41:20;21.50;99.90
26990;DHT22;14537;47.788;11.858;2023-07-20T11:43:47;21.50;99.90
26990;DHT22;14537;47.788;11.858;2023-07-20T11:46:13;21.30;99.90
26990;DHT22;14537;47.788;11.858;2023-07-20T11:48:38;21.20;99.90
26990;DHT22;14537;47.788;11.858;2023-07-20T11:51:05;21.30;99.90
26990;DHT22;14537;47.788;11.858;2023-07-20T11:53:31;21.50;99.90
26990;DHT22;14537;47.788;11.858;2023-07-20T11:55:59;21.40;99.90
26990;DHT22;14537;47.788;11.858;2023-07-20T11:58:24;21.40;99.90
26990;DHT22;14537;47.788;11.858;2023-07-20T12:00:55;21.50;99.90
26990;DHT22;14537;47.788;11.858;2023-07-20T12:03:21;21.70;99.90
26990;DHT22;14537;47.788;11.858;2023-07-20T12:05:46;21.70;99.90
26990;DHT22;14537;47.788;11.858;2023-07-20T12:08:12;21.80;99.90
26990;DHT22;14537;47.788;11.858;2023-07-20T12:10:39;21.70;99.90
26990;DHT22;14537;47.788;11.858;2023-07-20T12:13:10;21.80;99.90
26990;DHT22;14537;47.788;11.858;2023-07-20T12:15:37;22.10;99.90
26990;DHT22;14537;47.788;11.858;2023-07-20T12:18:03;22.00;99.90
26990;DHT22;14537;47.788;11.858;2023-07-20T12:23:01;22.00;99.90
26990;DHT22;14537;47.788;11.858;2023-07-20T12:25:44;22.00;99.90
26990;DHT22;14537;47.788;11.858;2023-07-20T12:28:14;22.20;99.90
26990;DHT22;14537;47.788;11.858;2023-07-20T12:30:41;22.00;99.90
26990;DHT22;14537;47.788;11.858;2023-07-20T12:33:07;22.10;99.90
26990;DHT22;14537;47.788;11.858;2023-07-20T12:35:34;22.00;99.90
26990;DHT22;14537;47.788;11.858;2023-07-20T12:38:00;22.00;99.90
26990;DHT22;14537;47.788;11.858;2023-07-20T12:40:25;22.00;99.90
26990;DHT22;14537;47.788;11.858;2023-07-20T12:42:52;22.20;99.90
26990;DHT22;14537;47.788;11.858;2023-07-20T12:45:17;22.30;99.90
26990;DHT22;14537;47.788;11.858;2023-07-20T12:47:43;22.60;99.90
26990;DHT22;14537;47.788;11.858;2023-07-20T12:50:12;22.90;99.90
26990;DHT22;14537;47.788;11.858;2023-07-20T12:52:39;22.80;99.90
26990;DHT22;14537;47.788;11.858;2023-07-20T12:55:06;22.60;99.90
26990;DHT22;14537;47.788;11.858;2023-07-20T12:57:34;22.80;99.90
26990;DHT22;14537;47.788;11.858;2023-07-20T13:00:00;23.00;99.90
26990;DHT22;14537;47.788;11.858;2023-07-20T13:02:26;23.00;99.90
26990;DHT22;14537;47.788;11.858;2023-07-20T13:04:52;22.70;99.90
26990;DHT22;14537;47.788;11.858;2023-07-20T13:07:32;23.00;99.90
26990;DHT22;14537;47.788;11.858;2023-07-20T13:10:01;23.20;99.90
26990;DHT22;14537;47.788;11.858;2023-07-20T13:12:28;23.20;99.90
26990;DHT22;14537;47.788;11.858;2023-07-20T13:14:55;22.90;99.90
26990;DHT22;14537;47.788;11.858;2023-07-20T13:17:22;23.40;99.90
26990;DHT22;14537;47.788;11.858;2023-07-20T13:19:48;24.10;99.90
26990;DHT22;14537;47.788;11.858;2023-07-20T13:22:13;24.00;99.90
26990;DHT22;14537;47.788;11.858;2023-07-20T13:24:40;24.20;99.90
26990;DHT22;14537;47.788;11.858;2023-07-20T13:27:06;24.70;99.90
26990;DHT22;14537;47.788;11.858;2023-07-20T13:29:32;25.10;99.90
26990;DHT22;14537;47.788;11.858;2023-07-20T13:31:58;25.30;99.60
26990;DHT22;14537;47.788;11.858;2023-07-20T13:34:25;25.20;99.60
26990;DHT22;14537;47.788;11.858;2023-07-20T13:36:50;25.10;97.40
26990;DHT22;14537;47.788;11.858;2023-07-20T13:39:16;24.50;97.30
26990;DHT22;14537;47.788;11.858;2023-07-20T13:41:42;23.70;99.90
26990;DHT22;14537;47.788;11.858;2023-07-20T13:44:07;23.80;98.10
26990;DHT22;14537;47.788;11.858;2023-07-20T13:46:33;23.90;98.70
26990;DHT22;14537;47.788;11.858;2023-07-20T13:48:59;24.40;98.50
26990;DHT22;14537;47.788;11.858;2023-07-20T13:51:25;24.60;99.90
26990;DHT22;14537;47.788;11.858;2023-07-20T13:53:51;25.10;99.20
26990;DHT22;14537;47.788;11.858;2023-07-20T13:56:17;25.60;96.40
26990;DHT22;14537;47.788;11.858;2023-07-20T13:58:43;25.10;96.20
26990;DHT22;14537;47.788;11.858;2023-07-20T14:01:08;24.90;96.40
26990;DHT22;14537;47.788;11.858;2023-07-20T14:03:34;25.00;95.90
26990;DHT22;14537;47.788;11.858;2023-07-20T14:05:59;25.30;97.20
26990;DHT22;14537;47.788;11.858;2023-07-20T14:08:25;25.40;95.30
26990;DHT22;14537;47.788;11.858;2023-07-20T14:10:51;25.60;95.20
26990;DHT22;14537;47.788;11.858;2023-07-20T14:13:16;25.80;94.40
26990;DHT22;14537;47.788;11.858;2023-07-20T14:15:42;25.40;94.20
26990;DHT22;14537;47.788;11.858;2023-07-20T14:18:07;25.00;93.00
26990;DHT22;14537;47.788;11.858;2023-07-20T14:20:33;24.50;93.70
26990;DHT22;14537;47.788;11.858;2023-07-20T14:22:59;24.40;94.70
26990;DHT22;14537;47.788;11.858;2023-07-20T14:25:25;24.60;94.30
26990;DHT22;14537;47.788;11.858;2023-07-20T14:27:50;24.60;95.30
26990;DHT22;14537;47.788;11.858;2023-07-20T14:30:16;24.60;94.30
26990;DHT22;14537;47.788;11.858;2023-07-20T14:32:41;24.50;93.10
26990;DHT22;14537;47.788;11.858;2023-07-20T14:35:07;24.40;94.00
26990;DHT22;14537;47.788;11.858;2023-07-20T14:37:34;25.00;93.90
26990;DHT22;14537;47.788;11.858;2023-07-20T14:40:00;25.80;92.20
26990;DHT22;14537;47.788;11.858;2023-07-20T14:42:26;25.80;91.50
26990;DHT22;14537;47.788;11.858;2023-07-20T14:44:51;26.30;90.80
26990;DHT22;14537;47.788;11.858;2023-07-20T14:47:17;26.60;92.50
26990;DHT22;14537;47.788;11.858;2023-07-20T14:49:44;27.00;90.40
26990;DHT22;14537;47.788;11.858;2023-07-20T14:52:10;27.10;89.80
26990;DHT22;14537;47.788;11.858;2023-07-20T14:54:35;26.00;89.60
26990;DHT22;14537;47.788;11.858;2023-07-20T14:57:01;26.40;90.40
26990;DHT22;14537;47.788;11.858;2023-07-20T14:59:28;27.10;87.10
26990;DHT22;14537;47.788;11.858;2023-07-20T15:01:53;27.30;85.40
26990;DHT22;14537;47.788;11.858;2023-07-20T15:04:19;27.10;82.70
26990;DHT22;14537;47.788;11.858;2023-07-20T15:06:44;27.90;84.70
26990;DHT22;14537;47.788;11.858;2023-07-20T15:09:10;29.10;84.80
26990;DHT22;14537;47.788;11.858;2023-07-20T15:11:36;29.60;78.80
26990;DHT22;14537;47.788;11.858;2023-07-20T15:14:02;30.50;73.20
26990;DHT22;14537;47.788;11.858;2023-07-20T15:16:27;31.60;70.50
26990;DHT22;14537;47.788;11.858;2023-07-20T15:18:53;31.40;67.90
26990;DHT22;14537;47.788;11.858;2023-07-20T15:21:19;32.10;62.70
26990;DHT22;14537;47.788;11.858;2023-07-20T15:23:44;32.40;63.10
26990;DHT22;14537;47.788;11.858;2023-07-20T15:26:10;33.80;60.90
26990;DHT22;14537;47.788;11.858;2023-07-20T15:28:40;34.10;56.80
26990;DHT22;14537;47.788;11.858;2023-07-20T15:31:06;33.10;57.30
26990;DHT22;14537;47.788;11.858;2023-07-20T15:33:32;31.80;56.90
26990;DHT22;14537;47.788;11.858;2023-07-20T15:35:58;31.80;54.90
26990;DHT22;14537;47.788;11.858;2023-07-20T15:38:24;31.70;55.90